sensor_id;sensor_type;location;lat;lon;timestamp;P1;durP1;ratioP1;P2;durP2;ratioP2
40669;SDS011;26355;45.528;9.234;2022-09-09T00:01:01;20.85;;;8.82;;
40669;SDS011;26355;45.528;9.234;2022-09-09T00:03:40;19.77;;;9.57;;
40669;SDS011;26355;45.528;9.234;2022-09-09T00:06:28;19.08;;;9.57;;
40669;SDS011;26355;45.528;9.234;2022-09-09T00:11:36;21.02;;;10.52;;
40669;SDS011;26355;45.528;9.234;2022-09-09T00:16:53;20.30;;;9.15;;
40669;SDS011;26355;45.528;9.234;2022-09-09T00:22:04;20.75;;;10.45;;
40669;SDS011;26355;45.528;9.234;2022-09-09T00:24:44;19.33;;;10.33;;
40669;SDS011;26355;45.528;9.234;2022-09-09T00:27:16;20.40;;;10.30;;
40669;SDS011;26355;45.528;9.234;2022-09-09T00:29:45;20.55;;;11.02;;
40669;SDS011;26355;45.528;9.234;2022-09-09T00:32:19;20.50;;;10.55;;
40669;SDS011;26355;45.528;9.234;2022-09-09T00:34:49;19.33;;;10.05;;
40669;SDS011;26355;45.528;9.234;2022-09-09T00:37:19;19.80;;;10.55;;
40669;SDS011;26355;45.528;9.234;2022-09-09T00:39:47;21.10;;;11.57;;
40669;SDS011;26355;45.528;9.234;2022-09-09T00:42:18;21.15;;;11.70;;
40669;SDS011;26355;45.528;9.234;2022-09-09T00:53:02;23.30;;;12.05;;
40669;SDS011;26355;45.528;9.234;2022-09-09T00:58:06;24.00;;;12.55;;
40669;SDS011;26355;45.528;9.234;2022-09-09T01:00:57;21.55;;;12.32;;
40669;SDS011;26355;45.528;9.234;2022-09-09T01:03:38;21.27;;;13.20;;
40669;SDS011;26355;45.528;9.234;2022-09-09T01:06:29;24.52;;;13.30;;
40669;SDS011;26355;45.528;9.234;2022-09-09T01:11:52;22.15;;;13.23;;
40669;SDS011;26355;45.528;9.234;2022-09-09T01:14:41;22.80;;;13.05;;
40669;SDS011;26355;45.528;9.234;2022-09-09T01:17:19;24.42;;;12.93;;
40669;SDS011;26355;45.528;9.234;2022-09-09T01:22:40;22.35;;;13.20;;
40669;SDS011;26355;45.528;9.234;2022-09-09T01:28:16;24.02;;;13.68;;
40669;SDS011;26355;45.528;9.234;2022-09-09T01:30:46;24.70;;;13.27;;
40669;SDS011;26355;45.528;9.234;2022-09-09T01:33:16;25.90;;;14.10;;
40669;SDS011;26355;45.528;9.234;2022-09-09T01:38:09;24.27;;;14.43;;
40669;SDS011;26355;45.528;9.234;2022-09-09T01:40:35;23.20;;;13.63;;
40669;SDS011;26355;45.528;9.234;2022-09-09T01:43:01;24.38;;;14.23;;
40669;SDS011;26355;45.528;9.234;2022-09-09T01:45:28;26.35;;;14.60;;
40669;SDS011;26355;45.528;9.234;2022-09-09T01:47:54;22.73;;;13.13;;
40669;SDS011;26355;45.528;9.234;2022-09-09T01:50:21;26.13;;;15.07;;
40669;SDS011;26355;45.528;9.234;2022-09-09T01:52:54;24.08;;;13.48;;
40669;SDS011;26355;45.528;9.234;2022-09-09T01:55:28;24.55;;;13.68;;
40669;SDS011;26355;45.528;9.234;2022-09-09T01:58:08;23.85;;;14.25;;
40669;SDS011;26355;45.528;9.234;2022-09-09T02:00:35;25.00;;;12.80;;
40669;SDS011;26355;45.528;9.234;2022-09-09T02:03:23;24.52;;;13.27;;
40669;SDS011;26355;45.528;9.234;2022-09-09T02:08:48;25.38;;;14.32;;
40669;SDS011;26355;45.528;9.234;2022-09-09T02:11:16;24.58;;;13.75;;
40669;SDS011;26355;45.528;9.234;2022-09-09T02:13:44;27.15;;;14.07;;
40669;SDS011;26355;45.528;9.234;2022-09-09T02:18:56;23.10;;;13.65;;
40669;SDS011;26355;45.528;9.234;2022-09-09T02:21:27;25.40;;;13.88;;
40669;SDS011;26355;45.528;9.234;2022-09-09T02:23:54;23.90;;;13.48;;
40669;SDS011;26355;45.528;9.234;2022-09-09T02:26:24;23.48;;;13.02;;
40669;SDS011;26355;45.528;9.234;2022-09-09T02:31:19;25.75;;;13.98;;
40669;SDS011;26355;45.528;9.234;2022-09-09T02:33:55;26.42;;;14.00;;
40669;SDS011;26355;45.528;9.234;2022-09-09T02:36:25;24.52;;;13.50;;
40669;SDS011;26355;45.528;9.234;2022-09-09T02:38:54;24.23;;;14.30;;
40669;SDS011;26355;45.528;9.234;2022-09-09T02:41:23;24.75;;;12.98;;
40669;SDS011;26355;45.528;9.234;2022-09-09T02:43:52;26.55;;;13.93;;
40669;SDS011;26355;45.528;9.234;2022-09-09T02:52:08;23.27;;;13.23;;
40669;SDS011;26355;45.528;9.234;2022-09-09T02:54:40;24.17;;;13.90;;
40669;SDS011;26355;45.528;9.234;2022-09-09T02:57:19;22.77;;;12.52;;
40669;SDS011;26355;45.528;9.234;2022-09-09T02:59:50;25.08;;;12.63;;
40669;SDS011;26355;45.528;9.234;2022-09-09T03:02:19;22.30;;;12.90;;
40669;SDS011;26355;45.528;9.234;2022-09-09T03:04:45;22.48;;;11.80;;
40669;SDS011;26355;45.528;9.234;2022-09-09T03:07:15;24.83;;;12.82;;
40669;SDS011;26355;45.528;9.234;2022-09-09T03:09:42;23.55;;;12.52;;
40669;SDS011;26355;45.528;9.234;2022-09-09T03:12:07;23.27;;;12.43;;
40669;SDS011;26355;45.528;9.234;2022-09-09T03:14:33;23.98;;;13.20;;
40669;SDS011;26355;45.528;9.234;2022-09-09T03:16:59;23.23;;;12.60;;
40669;SDS011;26355;45.528;9.234;2022-09-09T03:19:26;23.73;;;13.30;;
40669;SDS011;26355;45.528;9.234;2022-09-09T03:21:52;23.25;;;12.93;;
40669;SDS011;26355;45.528;9.234;2022-09-09T03:24:18;26.38;;;15.27;;
40669;SDS011;26355;45.528;9.234;2022-09-09T03:26:44;25.65;;;16.23;;
40669;SDS011;26355;45.528;9.234;2022-09-09T03:29:10;27.33;;;17.48;;
40669;SDS011;26355;45.528;9.234;2022-09-09T03:31:37;30.20;;;18.50;;
40669;SDS011;26355;45.528;9.234;2022-09-09T03:34:03;28.67;;;18.52;;
40669;SDS011;26355;45.528;9.234;2022-09-09T03:36:29;28.17;;;18.83;;
40669;SDS011;26355;45.528;9.234;2022-09-09T03:38:55;29.48;;;20.00;;
40669;SDS011;26355;45.528;9.234;2022-09-09T03:41:21;30.63;;;19.95;;
40669;SDS011;26355;45.528;9.234;2022-09-09T03:43:51;29.02;;;19.98;;
40669;SDS011;26355;45.528;9.234;2022-09-09T03:46:18;30.40;;;19.67;;
40669;SDS011;26355;45.528;9.234;2022-09-09T03:48:44;29.95;;;20.67;;
40669;SDS011;26355;45.528;9.234;2022-09-09T03:51:10;28.55;;;20.13;;
40669;SDS011;26355;45.528;9.234;2022-09-09T03:53:36;27.90;;;18.48;;
40669;SDS011;26355;45.528;9.234;2022-09-09T03:56:03;28.13;;;18.58;;
40669;SDS011;26355;45.528;9.234;2022-09-09T03:58:31;29.27;;;19.65;;
40669;SDS011;26355;45.528;9.234;2022-09-09T04:01:00;31.10;;;20.20;;
40669;SDS011;26355;45.528;9.234;2022-09-09T04:03:27;30.85;;;20.15;;
40669;SDS011;26355;45.528;9.234;2022-09-09T04:05:53;29.42;;;20.83;;
40669;SDS011;26355;45.528;9.234;2022-09-09T04:08:20;30.15;;;18.77;;
40669;SDS011;26355;45.528;9.234;2022-09-09T04:10:50;30.50;;;20.40;;
40669;SDS011;26355;45.528;9.234;2022-09-09T04:13:17;30.95;;;19.70;;
40669;SDS011;26355;45.528;9.234;2022-09-09T04:15:48;31.38;;;21.50;;
40669;SDS011;26355;45.528;9.234;2022-09-09T04:18:16;32.03;;;21.40;;
40669;SDS011;26355;45.528;9.234;2022-09-09T04:20:41;34.55;;;22.33;;
40669;SDS011;26355;45.528;9.234;2022-09-09T04:23:08;31.77;;;22.58;;
40669;SDS011;26355;45.528;9.234;2022-09-09T04:25:34;32.38;;;23.95;;
40669;SDS011;26355;45.528;9.234;2022-09-09T04:27:59;33.70;;;21.83;;
40669;SDS011;26355;45.528;9.234;2022-09-09T04:30:25;29.05;;;20.48;;
40669;SDS011;26355;45.528;9.234;2022-09-09T04:32:52;29.33;;;20.08;;
40669;SDS011;26355;45.528;9.234;2022-09-09T04:35:17;30.60;;;21.40;;
40669;SDS011;26355;45.528;9.234;2022-09-09T04:37:45;28.98;;;19.73;;
40669;SDS011;26355;45.528;9.234;2022-09-09T04:40:11;31.55;;;20.67;;
40669;SDS011;26355;45.528;9.234;2022-09-09T04:42:37;30.05;;;21.73;;
40669;SDS011;26355;45.528;9.234;2022-09-09T04:45:03;28.90;;;19.50;;
40669;SDS011;26355;45.528;9.234;2022-09-09T04:49:56;28.77;;;18.80;;
40669;SDS011;26355;45.528;9.234;2022-09-09T04:52:22;30.23;;;20.00;;
40669;SDS011;26355;45.528;9.234;2022-09-09T04:54:48;29.85;;;19.08;;
40669;SDS011;26355;45.528;9.234;2022-09-09T04:57:13;31.63;;;20.30;;
40669;SDS011;26355;45.528;9.234;2022-09-09T04:59:39;27.92;;;19.58;;
40669;SDS011;26355;45.528;9.234;2022-09-09T05:02:05;29.42;;;19.45;;
40669;SDS011;26355;45.528;9.234;2022-09-09T05:04:30;28.80;;;18.33;;
40669;SDS011;26355;45.528;9.234;2022-09-09T05:06:58;29.58;;;19.65;;
40669;SDS011;26355;45.528;9.234;2022-09-09T05:09:23;32.65;;;20.40;;
40669;SDS011;26355;45.528;9.234;2022-09-09T05:11:49;27.23;;;19.95;;
40669;SDS011;26355;45.528;9.234;2022-09-09T05:14:15;31.08;;;21.75;;
40669;SDS011;26355;45.528;9.234;2022-09-09T05:16:41;31.00;;;20.25;;
40669;SDS011;26355;45.528;9.234;2022-09-09T05:19:09;28.45;;;18.65;;
40669;SDS011;26355;45.528;9.234;2022-09-09T05:21:35;28.35;;;19.08;;
40669;SDS011;26355;45.528;9.234;2022-09-09T05:24:01;27.25;;;18.20;;
40669;SDS011;26355;45.528;9.234;2022-09-09T05:26:26;30.15;;;19.08;;
40669;SDS011;26355;45.528;9.234;2022-09-09T05:28:54;29.85;;;20.45;;
40669;SDS011;26355;45.528;9.234;2022-09-09T05:31:20;27.48;;;17.30;;
40669;SDS011;26355;45.528;9.234;2022-09-09T05:33:46;23.40;;;13.10;;
40669;SDS011;26355;45.528;9.234;2022-09-09T05:36:14;21.92;;;10.15;;
40669;SDS011;26355;45.528;9.234;2022-09-09T05:38:42;17.23;;;8.63;;
40669;SDS011;26355;45.528;9.234;2022-09-09T05:41:08;16.83;;;7.22;;
40669;SDS011;26355;45.528;9.234;2022-09-09T05:43:36;15.40;;;6.38;;
40669;SDS011;26355;45.528;9.234;2022-09-09T05:46:07;15.23;;;4.82;;
40669;SDS011;26355;45.528;9.234;2022-09-09T05:48:35;15.88;;;4.13;;
40669;SDS011;26355;45.528;9.234;2022-09-09T05:51:03;11.73;;;3.28;;
40669;SDS011;26355;45.528;9.234;2022-09-09T05:53:31;8.52;;;2.83;;
40669;SDS011;26355;45.528;9.234;2022-09-09T05:58:32;6.97;;;2.75;;
40669;SDS011;26355;45.528;9.234;2022-09-09T06:01:02;6.22;;;2.20;;
40669;SDS011;26355;45.528;9.234;2022-09-09T06:03:29;7.43;;;2.58;;
40669;SDS011;26355;45.528;9.234;2022-09-09T06:05:58;8.02;;;2.30;;
40669;SDS011;26355;45.528;9.234;2022-09-09T06:08:32;6.22;;;2.17;;
40669;SDS011;26355;45.528;9.234;2022-09-09T06:13:31;7.35;;;2.20;;
40669;SDS011;26355;45.528;9.234;2022-09-09T06:15:57;6.32;;;2.00;;
40669;SDS011;26355;45.528;9.234;2022-09-09T06:18:25;6.68;;;2.00;;
40669;SDS011;26355;45.528;9.234;2022-09-09T06:20:57;7.30;;;2.13;;
40669;SDS011;26355;45.528;9.234;2022-09-09T06:23:25;6.78;;;2.50;;
40669;SDS011;26355;45.528;9.234;2022-09-09T06:25:52;6.80;;;2.58;;
40669;SDS011;26355;45.528;9.234;2022-09-09T06:28:36;8.93;;;2.85;;
40669;SDS011;26355;45.528;9.234;2022-09-09T06:31:04;6.60;;;2.17;;
40669;SDS011;26355;45.528;9.234;2022-09-09T06:33:31;6.25;;;2.40;;
40669;SDS011;26355;45.528;9.234;2022-09-09T06:36:03;7.10;;;2.40;;
40669;SDS011;26355;45.528;9.234;2022-09-09T06:38:29;9.67;;;2.70;;
40669;SDS011;26355;45.528;9.234;2022-09-09T06:40:55;8.88;;;2.95;;
40669;SDS011;26355;45.528;9.234;2022-09-09T06:43:27;8.02;;;2.50;;
40669;SDS011;26355;45.528;9.234;2022-09-09T06:46:00;9.63;;;2.90;;
40669;SDS011;26355;45.528;9.234;2022-09-09T06:48:28;10.82;;;2.60;;
40669;SDS011;26355;45.528;9.234;2022-09-09T06:51:27;9.27;;;2.30;;
40669;SDS011;26355;45.528;9.234;2022-09-09T06:53:47;7.72;;;2.13;;
40669;SDS011;26355;45.528;9.234;2022-09-09T06:58:46;6.47;;;2.13;;
40669;SDS011;26355;45.528;9.234;2022-09-09T07:01:14;9.68;;;2.70;;
40669;SDS011;26355;45.528;9.234;2022-09-09T07:03:42;7.38;;;2.15;;
40669;SDS011;26355;45.528;9.234;2022-09-09T07:06:16;8.90;;;2.20;;
40669;SDS011;26355;45.528;9.234;2022-09-09T07:08:50;8.83;;;2.37;;
40669;SDS011;26355;45.528;9.234;2022-09-09T07:11:17;7.28;;;2.10;;
40669;SDS011;26355;45.528;9.234;2022-09-09T07:13:44;10.32;;;2.65;;
40669;SDS011;26355;45.528;9.234;2022-09-09T07:16:10;7.53;;;2.30;;
40669;SDS011;26355;45.528;9.234;2022-09-09T07:18:38;10.45;;;2.28;;
40669;SDS011;26355;45.528;9.234;2022-09-09T07:21:05;7.72;;;2.55;;
40669;SDS011;26355;45.528;9.234;2022-09-09T07:23:31;10.07;;;2.53;;
40669;SDS011;26355;45.528;9.234;2022-09-09T07:25:57;7.90;;;2.10;;
40669;SDS011;26355;45.528;9.234;2022-09-09T07:28:24;9.30;;;2.45;;
40669;SDS011;26355;45.528;9.234;2022-09-09T07:30:57;7.28;;;2.38;;
40669;SDS011;26355;45.528;9.234;2022-09-09T07:33:27;9.43;;;2.40;;
40669;SDS011;26355;45.528;9.234;2022-09-09T07:38:27;7.45;;;2.00;;
40669;SDS011;26355;45.528;9.234;2022-09-09T07:40:54;9.57;;;2.00;;
40669;SDS011;26355;45.528;9.234;2022-09-09T07:43:28;8.70;;;2.00;;
40669;SDS011;26355;45.528;9.234;2022-09-09T07:45:57;8.15;;;2.40;;
40669;SDS011;26355;45.528;9.234;2022-09-09T07:48:23;9.13;;;2.60;;
40669;SDS011;26355;45.528;9.234;2022-09-09T07:50:48;6.30;;;2.05;;
40669;SDS011;26355;45.528;9.234;2022-09-09T07:53:14;9.07;;;2.13;;
40669;SDS011;26355;45.528;9.234;2022-09-09T07:55:39;5.40;;;1.80;;
40669;SDS011;26355;45.528;9.234;2022-09-09T07:58:05;8.02;;;1.90;;
40669;SDS011;26355;45.528;9.234;2022-09-09T08:00:31;5.10;;;1.98;;
40669;SDS011;26355;45.528;9.234;2022-09-09T08:02:58;8.95;;;2.53;;
40669;SDS011;26355;45.528;9.234;2022-09-09T08:05:26;7.80;;;2.22;;
40669;SDS011;26355;45.528;9.234;2022-09-09T08:07:53;6.25;;;2.05;;
40669;SDS011;26355;45.528;9.234;2022-09-09T08:10:18;4.72;;;1.80;;
40669;SDS011;26355;45.528;9.234;2022-09-09T08:12:44;10.65;;;3.08;;
40669;SDS011;26355;45.528;9.234;2022-09-09T08:15:10;6.72;;;2.30;;
40669;SDS011;26355;45.528;9.234;2022-09-09T08:17:35;6.32;;;2.15;;
40669;SDS011;26355;45.528;9.234;2022-09-09T08:20:02;7.40;;;2.20;;
40669;SDS011;26355;45.528;9.234;2022-09-09T08:22:31;8.88;;;2.80;;
40669;SDS011;26355;45.528;9.234;2022-09-09T08:24:57;9.98;;;2.00;;
40669;SDS011;26355;45.528;9.234;2022-09-09T08:27:23;6.93;;;2.75;;
40669;SDS011;26355;45.528;9.234;2022-09-09T08:29:49;8.02;;;2.00;;
40669;SDS011;26355;45.528;9.234;2022-09-09T08:32:14;7.15;;;1.80;;
40669;SDS011;26355;45.528;9.234;2022-09-09T08:34:41;5.57;;;2.00;;
40669;SDS011;26355;45.528;9.234;2022-09-09T08:37:07;9.85;;;2.00;;
40669;SDS011;26355;45.528;9.234;2022-09-09T08:39:32;10.40;;;1.70;;
40669;SDS011;26355;45.528;9.234;2022-09-09T08:55:41;5.35;;;1.65;;
40669;SDS011;26355;45.528;9.234;2022-09-09T08:58:19;5.88;;;1.88;;
40669;SDS011;26355;45.528;9.234;2022-09-09T09:09:17;4.07;;;1.20;;
40669;SDS011;26355;45.528;9.234;2022-09-09T09:11:55;5.07;;;1.35;;
40669;SDS011;26355;45.528;9.234;2022-09-09T09:14:26;6.60;;;1.50;;
40669;SDS011;26355;45.528;9.234;2022-09-09T09:19:29;3.08;;;1.20;;
40669;SDS011;26355;45.528;9.234;2022-09-09T09:30:15;6.82;;;1.35;;
40669;SDS011;26355;45.528;9.234;2022-09-09T09:32:48;5.63;;;1.27;;
40669;SDS011;26355;45.528;9.234;2022-09-09T09:35:24;3.78;;;1.17;;
40669;SDS011;26355;45.528;9.234;2022-09-09T09:37:50;5.63;;;1.30;;
40669;SDS011;26355;45.528;9.234;2022-09-09T09:40:17;5.28;;;1.40;;
40669;SDS011;26355;45.528;9.234;2022-09-09T09:42:51;3.97;;;1.60;;
40669;SDS011;26355;45.528;9.234;2022-09-09T09:45:26;5.78;;;1.40;;
40669;SDS011;26355;45.528;9.234;2022-09-09T09:48:03;6.65;;;1.60;;
40669;SDS011;26355;45.528;9.234;2022-09-09T09:50:39;5.07;;;1.50;;
40669;SDS011;26355;45.528;9.234;2022-09-09T09:53:36;13.02;;;1.92;;
40669;SDS011;26355;45.528;9.234;2022-09-09T09:56:05;5.00;;;1.27;;
40669;SDS011;26355;45.528;9.234;2022-09-09T09:58:33;2.90;;;1.40;;
40669;SDS011;26355;45.528;9.234;2022-09-09T10:03:57;6.72;;;1.65;;
40669;SDS011;26355;45.528;9.234;2022-09-09T10:06:31;5.07;;;1.60;;
40669;SDS011;26355;45.528;9.234;2022-09-09T10:09:03;6.93;;;1.50;;
40669;SDS011;26355;45.528;9.234;2022-09-09T10:14:30;5.18;;;1.67;;
40669;SDS011;26355;45.528;9.234;2022-09-09T10:22:35;6.32;;;1.33;;
40669;SDS011;26355;45.528;9.234;2022-09-09T10:33:44;12.77;;;2.60;;
40669;SDS011;26355;45.528;9.234;2022-09-09T10:36:24;8.23;;;1.90;;
40669;SDS011;26355;45.528;9.234;2022-09-09T10:54:54;7.95;;;1.90;;
40669;SDS011;26355;45.528;9.234;2022-09-09T10:57:40;5.20;;;1.60;;
40669;SDS011;26355;45.528;9.234;2022-09-09T11:02:44;8.32;;;1.95;;
40669;SDS011;26355;45.528;9.234;2022-09-09T11:05:19;5.93;;;1.90;;
40669;SDS011;26355;45.528;9.234;2022-09-09T11:08:05;3.90;;;1.70;;
40669;SDS011;26355;45.528;9.234;2022-09-09T11:13:37;7.60;;;2.10;;
40669;SDS011;26355;45.528;9.234;2022-09-09T11:19:09;7.53;;;2.00;;
40669;SDS011;26355;45.528;9.234;2022-09-09T11:21:45;5.28;;;1.70;;
40669;SDS011;26355;45.528;9.234;2022-09-09T11:24:24;4.28;;;1.48;;
40669;SDS011;26355;45.528;9.234;2022-09-09T11:27:02;6.82;;;1.67;;
40669;SDS011;26355;45.528;9.234;2022-09-09T11:29:36;8.77;;;2.53;;
40669;SDS011;26355;45.528;9.234;2022-09-09T11:35:09;8.40;;;1.90;;
40669;SDS011;26355;45.528;9.234;2022-09-09T11:40:59;7.97;;;1.83;;
40669;SDS011;26355;45.528;9.234;2022-09-09T11:46:07;9.98;;;2.20;;
40669;SDS011;26355;45.528;9.234;2022-09-09T11:51:08;10.73;;;2.88;;
40669;SDS011;26355;45.528;9.234;2022-09-09T11:53:36;8.18;;;1.98;;
40669;SDS011;26355;45.528;9.234;2022-09-09T11:56:25;11.60;;;2.50;;
40669;SDS011;26355;45.528;9.234;2022-09-09T11:59:24;7.43;;;1.83;;
40669;SDS011;26355;45.528;9.234;2022-09-09T12:01:55;9.38;;;2.13;;
40669;SDS011;26355;45.528;9.234;2022-09-09T12:04:40;5.40;;;1.80;;
40669;SDS011;26355;45.528;9.234;2022-09-09T12:07:33;8.55;;;1.95;;
40669;SDS011;26355;45.528;9.234;2022-09-09T12:12:34;10.32;;;2.10;;
40669;SDS011;26355;45.528;9.234;2022-09-09T12:17:42;8.23;;;2.20;;
40669;SDS011;26355;45.528;9.234;2022-09-09T12:20:18;4.90;;;1.95;;
40669;SDS011;26355;45.528;9.234;2022-09-09T12:22:50;7.97;;;2.38;;
40669;SDS011;26355;45.528;9.234;2022-09-09T12:28:09;7.97;;;2.17;;
40669;SDS011;26355;45.528;9.234;2022-09-09T12:33:16;6.53;;;2.45;;
40669;SDS011;26355;45.528;9.234;2022-09-09T12:35:44;6.03;;;2.00;;
40669;SDS011;26355;45.528;9.234;2022-09-09T12:38:19;7.25;;;2.22;;
40669;SDS011;26355;45.528;9.234;2022-09-09T12:41:23;5.63;;;1.80;;
40669;SDS011;26355;45.528;9.234;2022-09-09T12:43:50;6.20;;;1.77;;
40669;SDS011;26355;45.528;9.234;2022-09-09T12:46:50;6.00;;;1.93;;
40669;SDS011;26355;45.528;9.234;2022-09-09T12:51:59;7.68;;;2.05;;
40669;SDS011;26355;45.528;9.234;2022-09-09T12:54:28;9.05;;;2.28;;
40669;SDS011;26355;45.528;9.234;2022-09-09T12:56:53;8.95;;;2.00;;
40669;SDS011;26355;45.528;9.234;2022-09-09T12:59:23;9.15;;;1.98;;
40669;SDS011;26355;45.528;9.234;2022-09-09T13:01:57;6.15;;;1.95;;
40669;SDS011;26355;45.528;9.234;2022-09-09T13:04:23;5.93;;;2.40;;
40669;SDS011;26355;45.528;9.234;2022-09-09T13:06:49;10.30;;;2.10;;
40669;SDS011;26355;45.528;9.234;2022-09-09T13:09:17;5.85;;;1.80;;
40669;SDS011;26355;45.528;9.234;2022-09-09T13:11:45;7.00;;;1.70;;
40669;SDS011;26355;45.528;9.234;2022-09-09T13:14:25;7.70;;;1.92;;
40669;SDS011;26355;45.528;9.234;2022-09-09T13:16:55;7.95;;;2.00;;
40669;SDS011;26355;45.528;9.234;2022-09-09T13:19:23;7.78;;;2.00;;
40669;SDS011;26355;45.528;9.234;2022-09-09T13:21:52;8.10;;;2.50;;
40669;SDS011;26355;45.528;9.234;2022-09-09T13:24:31;21.77;;;4.82;;
40669;SDS011;26355;45.528;9.234;2022-09-09T13:27:00;5.82;;;2.15;;
40669;SDS011;26355;45.528;9.234;2022-09-09T13:29:28;10.18;;;2.40;;
40669;SDS011;26355;45.528;9.234;2022-09-09T13:32:05;7.43;;;2.17;;
40669;SDS011;26355;45.528;9.234;2022-09-09T13:34:37;10.00;;;2.10;;
40669;SDS011;26355;45.528;9.234;2022-09-09T13:37:04;6.55;;;1.98;;
40669;SDS011;26355;45.528;9.234;2022-09-09T13:39:34;8.05;;;1.80;;
40669;SDS011;26355;45.528;9.234;2022-09-09T13:42:02;9.30;;;2.08;;
40669;SDS011;26355;45.528;9.234;2022-09-09T13:44:29;7.75;;;2.03;;
40669;SDS011;26355;45.528;9.234;2022-09-09T13:49:47;12.32;;;2.50;;
40669;SDS011;26355;45.528;9.234;2022-09-09T13:52:14;6.45;;;1.73;;
40669;SDS011;26355;45.528;9.234;2022-09-09T13:54:42;6.72;;;1.80;;
40669;SDS011;26355;45.528;9.234;2022-09-09T13:57:19;6.95;;;2.38;;
40669;SDS011;26355;45.528;9.234;2022-09-09T13:59:46;7.10;;;2.08;;
40669;SDS011;26355;45.528;9.234;2022-09-09T14:02:12;6.72;;;1.90;;
40669;SDS011;26355;45.528;9.234;2022-09-09T14:04:38;6.88;;;2.00;;
40669;SDS011;26355;45.528;9.234;2022-09-09T14:07:07;9.63;;;3.10;;
40669;SDS011;26355;45.528;9.234;2022-09-09T14:09:37;9.63;;;2.22;;
40669;SDS011;26355;45.528;9.234;2022-09-09T14:12:03;7.22;;;2.13;;
40669;SDS011;26355;45.528;9.234;2022-09-09T14:14:29;8.27;;;2.33;;
40669;SDS011;26355;45.528;9.234;2022-09-09T14:16:55;5.03;;;1.77;;
40669;SDS011;26355;45.528;9.234;2022-09-09T14:19:20;7.80;;;1.90;;
40669;SDS011;26355;45.528;9.234;2022-09-09T14:21:46;6.57;;;1.80;;
40669;SDS011;26355;45.528;9.234;2022-09-09T14:24:11;6.50;;;1.75;;
40669;SDS011;26355;45.528;9.234;2022-09-09T14:26:37;6.45;;;1.98;;
40669;SDS011;26355;45.528;9.234;2022-09-09T14:29:03;9.18;;;2.10;;
40669;SDS011;26355;45.528;9.234;2022-09-09T14:31:28;8.35;;;2.05;;
40669;SDS011;26355;45.528;9.234;2022-09-09T14:33:54;6.53;;;2.00;;
40669;SDS011;26355;45.528;9.234;2022-09-09T14:36:20;5.65;;;2.33;;
40669;SDS011;26355;45.528;9.234;2022-09-09T14:38:45;8.45;;;2.08;;
40669;SDS011;26355;45.528;9.234;2022-09-09T14:41:13;6.17;;;2.00;;
40669;SDS011;26355;45.528;9.234;2022-09-09T14:43:43;8.88;;;2.20;;
40669;SDS011;26355;45.528;9.234;2022-09-09T14:46:13;8.73;;;2.35;;
40669;SDS011;26355;45.528;9.234;2022-09-09T14:48:42;8.50;;;2.17;;
40669;SDS011;26355;45.528;9.234;2022-09-09T14:51:17;5.22;;;1.60;;
40669;SDS011;26355;45.528;9.234;2022-09-09T14:53:45;9.13;;;2.35;;
40669;SDS011;26355;45.528;9.234;2022-09-09T14:56:12;6.97;;;2.30;;
40669;SDS011;26355;45.528;9.234;2022-09-09T14:58:40;8.10;;;2.10;;
40669;SDS011;26355;45.528;9.234;2022-09-09T15:01:06;5.30;;;2.08;;
40669;SDS011;26355;45.528;9.234;2022-09-09T15:03:37;7.00;;;1.92;;
40669;SDS011;26355;45.528;9.234;2022-09-09T15:06:05;7.03;;;1.77;;
40669;SDS011;26355;45.528;9.234;2022-09-09T15:08:39;8.93;;;2.17;;
40669;SDS011;26355;45.528;9.234;2022-09-09T15:11:07;7.32;;;2.00;;
40669;SDS011;26355;45.528;9.234;2022-09-09T15:13:33;7.20;;;1.92;;
40669;SDS011;26355;45.528;9.234;2022-09-09T15:16:20;8.00;;;2.10;;
40669;SDS011;26355;45.528;9.234;2022-09-09T15:18:52;4.25;;;1.80;;
40669;SDS011;26355;45.528;9.234;2022-09-09T15:21:19;7.53;;;2.10;;
40669;SDS011;26355;45.528;9.234;2022-09-09T15:23:47;8.32;;;2.13;;
40669;SDS011;26355;45.528;9.234;2022-09-09T15:26:13;5.90;;;2.17;;
40669;SDS011;26355;45.528;9.234;2022-09-09T15:28:40;6.10;;;2.03;;
40669;SDS011;26355;45.528;9.234;2022-09-09T15:31:11;8.05;;;2.75;;
40669;SDS011;26355;45.528;9.234;2022-09-09T15:33:48;7.00;;;2.10;;
40669;SDS011;26355;45.528;9.234;2022-09-09T15:36:30;6.35;;;2.03;;
40669;SDS011;26355;45.528;9.234;2022-09-09T15:39:05;5.03;;;1.90;;
40669;SDS011;26355;45.528;9.234;2022-09-09T15:41:37;6.68;;;1.75;;
40669;SDS011;26355;45.528;9.234;2022-09-09T15:44:04;6.55;;;2.10;;
40669;SDS011;26355;45.528;9.234;2022-09-09T15:49:12;5.85;;;1.50;;
40669;SDS011;26355;45.528;9.234;2022-09-09T15:51:44;7.72;;;2.22;;
40669;SDS011;26355;45.528;9.234;2022-09-09T15:54:15;6.82;;;2.05;;
40669;SDS011;26355;45.528;9.234;2022-09-09T15:56:42;9.85;;;2.20;;
40669;SDS011;26355;45.528;9.234;2022-09-09T15:59:09;6.10;;;1.65;;
40669;SDS011;26355;45.528;9.234;2022-09-09T16:01:35;7.47;;;1.73;;
40669;SDS011;26355;45.528;9.234;2022-09-09T16:04:01;8.88;;;2.00;;
40669;SDS011;26355;45.528;9.234;2022-09-09T16:06:27;6.80;;;1.90;;
40669;SDS011;26355;45.528;9.234;2022-09-09T16:08:54;6.57;;;1.98;;
40669;SDS011;26355;45.528;9.234;2022-09-09T16:11:25;6.22;;;1.90;;
40669;SDS011;26355;45.528;9.234;2022-09-09T16:13:53;5.78;;;1.90;;
40669;SDS011;26355;45.528;9.234;2022-09-09T16:16:20;6.35;;;1.92;;
40669;SDS011;26355;45.528;9.234;2022-09-09T16:18:48;10.15;;;2.10;;
40669;SDS011;26355;45.528;9.234;2022-09-09T16:21:21;9.32;;;2.00;;
40669;SDS011;26355;45.528;9.234;2022-09-09T16:23:54;9.65;;;1.90;;
40669;SDS011;26355;45.528;9.234;2022-09-09T16:26:20;6.18;;;1.92;;
40669;SDS011;26355;45.528;9.234;2022-09-09T16:28:46;9.48;;;1.75;;
40669;SDS011;26355;45.528;9.234;2022-09-09T16:31:14;12.38;;;2.55;;
40669;SDS011;26355;45.528;9.234;2022-09-09T16:33:42;7.85;;;2.00;;
40669;SDS011;26355;45.528;9.234;2022-09-09T16:36:09;9.15;;;2.67;;
40669;SDS011;26355;45.528;9.234;2022-09-09T16:38:39;7.75;;;2.38;;
40669;SDS011;26355;45.528;9.234;2022-09-09T16:41:05;6.70;;;2.00;;
40669;SDS011;26355;45.528;9.234;2022-09-09T16:43:32;6.13;;;2.00;;
40669;SDS011;26355;45.528;9.234;2022-09-09T16:45:59;9.93;;;2.33;;
40669;SDS011;26355;45.528;9.234;2022-09-09T16:48:31;7.00;;;1.95;;
40669;SDS011;26355;45.528;9.234;2022-09-09T16:51:04;6.20;;;2.20;;
40669;SDS011;26355;45.528;9.234;2022-09-09T16:53:32;9.02;;;2.42;;
40669;SDS011;26355;45.528;9.234;2022-09-09T16:56:04;4.80;;;1.90;;
40669;SDS011;26355;45.528;9.234;2022-09-09T16:58:33;6.43;;;1.83;;
40669;SDS011;26355;45.528;9.234;2022-09-09T17:00:59;8.18;;;2.40;;
40669;SDS011;26355;45.528;9.234;2022-09-09T17:03:27;6.75;;;1.95;;
40669;SDS011;26355;45.528;9.234;2022-09-09T17:05:52;7.00;;;2.00;;
40669;SDS011;26355;45.528;9.234;2022-09-09T17:08:18;7.30;;;1.80;;
40669;SDS011;26355;45.528;9.234;2022-09-09T17:10:44;8.25;;;2.08;;
40669;SDS011;26355;45.528;9.234;2022-09-09T17:13:10;8.82;;;2.53;;
40669;SDS011;26355;45.528;9.234;2022-09-09T17:15:40;7.82;;;2.13;;
40669;SDS011;26355;45.528;9.234;2022-09-09T17:18:10;6.00;;;2.05;;
40669;SDS011;26355;45.528;9.234;2022-09-09T17:20:40;8.38;;;2.47;;
40669;SDS011;26355;45.528;9.234;2022-09-09T17:23:07;7.80;;;2.38;;
40669;SDS011;26355;45.528;9.234;2022-09-09T17:25:34;7.57;;;2.13;;
40669;SDS011;26355;45.528;9.234;2022-09-09T17:28:00;6.53;;;2.00;;
40669;SDS011;26355;45.528;9.234;2022-09-09T17:30:28;8.77;;;2.33;;
40669;SDS011;26355;45.528;9.234;2022-09-09T17:32:56;8.75;;;2.20;;
40669;SDS011;26355;45.528;9.234;2022-09-09T17:35:22;8.38;;;2.17;;
40669;SDS011;26355;45.528;9.234;2022-09-09T17:37:47;8.23;;;2.10;;